Time;durP1;ratioP1;P1;durP2;ratioP2;P2;SDS_P1;SDS_P2;PMS_P1;PMS_P2;Temp;Humidity;BMP_temperature;BMP_pressure;BME280_temperature;BME280_humidity;BME280_pressure;Samples;Min_cycle;Max_cycle;Signal;HPM_P1;HPM_P2
2023/06/01 00:01:58;;;;;;;4.30;1.47;;;19.00;58.10;;;;;;5012714;28;21005;-80
2023/06/01 00:04:24;;;;;;;6.33;1.87;;;19.00;58.40;;;;;;4995127;28;20202;-80
2023/06/01 00:06:50;;;;;;;2.50;1.60;;;18.90;58.60;;;;;;5013219;28;20175;-80
2023/06/01 00:09:15;;;;;;;3.73;2.10;;;18.90;58.80;;;;;;4983018;28;20187;-80
2023/06/01 00:11:41;;;;;;;4.30;1.63;;;18.80;59.10;;;;;;5012949;28;20228;-80
2023/06/01 00:14:07;;;;;;;3.70;1.30;;;18.80;59.50;;;;;;4979371;28;20197;-81
2023/06/01 00:16:33;;;;;;;3.93;1.60;;;18.70;59.70;;;;;;5012240;28;20232;-80
2023/06/01 00:19:01;;;;;;;3.50;1.60;;;18.70;60.10;;;;;;4995235;28;20178;-81
2023/06/01 00:21:28;;;;;;;6.30;1.70;;;18.70;60.60;;;;;;5011567;28;21080;-81
2023/06/01 00:23:53;;;;;;;2.90;1.67;;;18.60;61.00;;;;;;5012623;28;20633;-80
2023/06/01 00:26:20;;;;;;;3.50;2.00;;;18.50;61.60;;;;;;5011898;28;21164;-81
2023/06/01 00:28:49;;;;;;;4.30;1.43;;;18.50;61.60;;;;;;5012381;28;20182;-80
2023/06/01 00:31:15;;;;;;;6.93;1.70;;;18.50;62.20;;;;;;5012506;28;20988;-80
2023/06/01 00:33:41;;;;;;;6.30;2.00;;;18.40;62.90;;;;;;4978124;28;20195;-79
2023/06/01 00:36:07;;;;;;;5.53;2.10;;;18.40;63.60;;;;;;4968245;28;20241;-79
2023/06/01 00:38:32;;;;;;;3.40;1.57;;;18.40;64.20;;;;;;4991420;28;20183;-79
2023/06/01 00:40:58;;;;;;;4.53;2.30;;;18.30;64.30;;;;;;4994817;28;20586;-80
2023/06/01 00:43:24;;;;;;;2.73;1.30;;;18.30;65.00;;;;;;4993659;28;20602;-80
2023/06/01 00:45:50;;;;;;;4.30;1.70;;;18.30;65.30;;;;;;4997535;28;20269;-80
2023/06/01 00:48:16;;;;;;;3.43;1.33;;;18.30;66.30;;;;;;5013634;28;20569;-80
2023/06/01 00:50:42;;;;;;;3.40;1.90;;;18.20;66.90;;;;;;4999967;28;20271;-80
2023/06/01 00:53:15;;;;;;;4.43;1.30;;;18.20;67.20;;;;;;4994513;28;20621;-81
2023/06/01 00:55:41;;;;;;;3.03;1.53;;;18.20;68.20;;;;;;5011879;28;20587;-80
2023/06/01 00:58:07;;;;;;;4.27;1.47;;;18.10;68.30;;;;;;4994672;28;20574;-80
2023/06/01 01:00:33;;;;;;;2.97;1.47;;;18.10;68.90;;;;;;4993949;28;20985;-80
2023/06/01 01:03:07;;;;;;;5.00;1.50;;;18.10;69.40;;;;;;4993953;28;20652;-80
2023/06/01 01:05:34;;;;;;;2.80;1.73;;;18.00;69.90;;;;;;5011416;28;20186;-80
2023/06/01 01:08:27;;;;;;;2.50;1.13;;;18.00;70.40;;;;;;4993884;28;20934;-80
2023/06/01 01:11:03;;;;;;;4.70;1.97;;;18.00;72.80;;;;;;4994192;28;20674;-81
2023/06/01 01:13:50;;;;;;;4.83;1.53;;;17.90;72.10;;;;;;5011182;28;20605;-80
2023/06/01 01:16:49;;;;;;;3.57;1.70;;;17.90;72.40;;;;;;4977263;28;20705;-80
2023/06/01 01:19:27;;;;;;;4.73;2.00;;;17.90;74.50;;;;;;4925744;28;20679;-80
2023/06/01 01:22:38;;;;;;;2.87;1.43;;;17.80;74.00;;;;;;4993380;28;20634;-80
2023/06/01 01:25:21;;;;;;;3.97;1.53;;;17.80;75.60;;;;;;4930987;28;20637;-80
2023/06/01 01:28:19;;;;;;;6.47;1.93;;;17.70;75.40;;;;;;5003003;28;20651;-80
2023/06/01 01:30:46;;;;;;;4.37;1.60;;;17.70;76.70;;;;;;4993160;28;21132;-80
2023/06/01 01:33:13;;;;;;;2.53;1.40;;;17.70;76.20;;;;;;4993767;28;20653;-80
2023/06/01 01:35:39;;;;;;;4.23;2.07;;;17.60;76.90;;;;;;4973101;28;21149;-80
2023/06/01 01:38:05;;;;;;;5.00;2.10;;;17.60;77.60;;;;;;4958699;28;20589;-79
2023/06/01 01:40:30;;;;;;;5.57;2.00;;;17.60;78.20;;;;;;4973929;28;20578;-80
2023/06/01 01:42:56;;;;;;;2.83;1.50;;;17.50;78.90;;;;;;4980400;28;20214;-79
2023/06/01 01:45:23;;;;;;;3.63;1.40;;;17.50;79.90;;;;;;4978179;28;20193;-79
2023/06/01 01:48:03;;;;;;;4.00;1.80;;;17.50;80.40;;;;;;5010876;28;20588;-80
2023/06/01 01:50:36;;;;;;;3.30;2.07;;;17.40;81.70;;;;;;4994384;28;20569;-80
2023/06/01 01:53:04;;;;;;;3.60;1.60;;;17.40;82.50;;;;;;5027161;28;20628;-79
2023/06/01 01:55:33;;;;;;;4.27;1.60;;;17.40;83.10;;;;;;4995365;28;20593;-78
2023/06/01 01:58:01;;;;;;;7.43;1.83;;;17.30;83.70;;;;;;5027329;28;20615;-78
2023/06/01 02:00:27;;;;;;;2.70;1.77;;;17.30;84.40;;;;;;5027442;28;20586;-78
2023/06/01 02:02:53;;;;;;;4.97;1.70;;;17.30;85.00;;;;;;4997461;28;20739;-79
2023/06/01 02:05:18;;;;;;;2.53;1.73;;;17.20;85.90;;;;;;4996809;28;20667;-79
2023/06/01 02:07:45;;;;;;;6.27;2.03;;;17.20;87.10;;;;;;5014535;28;20197;-78
2023/06/01 02:10:11;;;;;;;5.30;2.20;;;17.20;87.50;;;;;;4984258;28;20193;-78
2023/06/01 02:12:39;;;;;;;9.43;2.13;;;17.20;88.20;;;;;;4994156;28;20629;-79
2023/06/01 02:15:05;;;;;;;2.63;1.23;;;17.10;88.70;;;;;;4977118;28;20584;-79
2023/06/01 02:17:32;;;;;;;4.10;1.57;;;17.10;89.30;;;;;;4977922;28;20269;-79
2023/06/01 02:19:58;;;;;;;2.87;1.70;;;17.10;90.00;;;;;;4976751;28;20601;-79
2023/06/01 02:22:25;;;;;;;3.60;2.03;;;17.10;90.20;;;;;;4977346;28;20724;-79
2023/06/01 02:24:51;;;;;;;3.70;1.97;;;17.00;90.50;;;;;;5010802;28;20665;-79
2023/06/01 02:27:16;;;;;;;5.17;1.63;;;17.00;90.70;;;;;;4964877;28;20183;-80
2023/06/01 02:29:42;;;;;;;4.60;1.90;;;17.00;91.00;;;;;;4989984;28;20183;-79
2023/06/01 02:32:08;;;;;;;3.70;1.60;;;16.90;91.20;;;;;;4989541;28;20266;-79
2023/06/01 02:34:36;;;;;;;2.43;1.50;;;16.90;91.50;;;;;;4993064;28;20233;-80
2023/06/01 02:37:02;;;;;;;3.97;1.70;;;16.90;91.80;;;;;;4990115;28;20586;-79
2023/06/01 02:39:27;;;;;;;5.90;1.60;;;16.80;92.00;;;;;;4993503;28;20585;-79
2023/06/01 02:41:53;;;;;;;4.10;1.93;;;16.80;92.10;;;;;;4975876;28;20194;-79
2023/06/01 02:44:19;;;;;;;3.87;2.10;;;16.80;92.50;;;;;;5026135;28;20218;-81
2023/06/01 02:46:45;;;;;;;3.70;1.40;;;16.70;92.70;;;;;;4977489;28;20581;-79
2023/06/01 02:49:11;;;;;;;3.40;1.60;;;16.70;92.90;;;;;;5011925;28;20257;-80
2023/06/01 02:51:38;;;;;;;3.93;1.63;;;16.70;93.10;;;;;;4996709;28;20252;-80
2023/06/01 02:54:17;;;;;;;4.67;1.43;;;16.70;93.90;;;;;;5017615;28;20636;-80
2023/06/01 02:56:43;;;;;;;3.07;2.30;;;16.60;93.70;;;;;;5014154;28;21120;-80
2023/06/01 02:59:09;;;;;;;3.50;1.57;;;16.60;94.00;;;;;;5013860;28;20581;-80
2023/06/01 03:01:41;;;;;;;4.97;2.47;;;16.60;94.20;;;;;;4980708;28;20209;-80
2023/06/01 03:04:07;;;;;;;3.03;1.77;;;16.60;94.60;;;;;;4979678;28;20672;-79
2023/06/01 03:06:37;;;;;;;4.72;1.70;;;16.50;94.90;;;;;;4980583;28;20556;-79
2023/06/01 03:09:05;;;;;;;3.30;1.53;;;16.50;95.00;;;;;;4996870;28;20178;-79
2023/06/01 03:12:10;;;;;;;3.43;1.57;;;16.50;95.50;;;;;;4953545;29;20603;-79
2023/06/01 03:14:37;;;;;;;7.60;2.83;;;16.50;95.30;;;;;;4940945;29;20969;-79
2023/06/01 03:17:02;;;;;;;2.43;1.30;;;16.40;95.80;;;;;;4974887;28;20596;-79
2023/06/01 03:19:28;;;;;;;3.10;2.10;;;16.40;95.90;;;;;;4979740;28;20181;-79
2023/06/01 03:21:56;;;;;;;5.07;1.80;;;16.40;96.10;;;;;;4994902;28;20557;-79
2023/06/01 03:24:25;;;;;;;3.60;1.77;;;16.40;96.70;;;;;;4996414;28;20683;-79
2023/06/01 03:26:52;;;;;;;7.60;1.90;;;16.40;96.80;;;;;;4979452;28;20585;-79
2023/06/01 03:29:17;;;;;;;3.90;1.80;;;16.40;96.90;;;;;;4996201;28;20170;-79
2023/06/01 03:31:43;;;;;;;6.03;2.20;;;16.40;97.20;;;;;;4978720;28;20265;-78
2023/06/01 03:34:09;;;;;;;5.30;2.40;;;16.30;97.40;;;;;;4995738;28;20639;-79
2023/06/01 03:36:36;;;;;;;4.50;2.93;;;16.30;97.70;;;;;;5004416;28;20625;-79
2023/06/01 03:39:07;;;;;;;6.77;2.40;;;16.30;97.70;;;;;;4992415;28;20713;-79
2023/06/01 03:41:35;;;;;;;5.63;2.10;;;16.30;98.00;;;;;;5027336;28;20582;-79
2023/06/01 03:44:01;;;;;;;6.27;2.37;;;16.30;98.20;;;;;;4994997;28;20315;-78
2023/06/01 03:46:27;;;;;;;9.63;2.73;;;16.30;98.80;;;;;;5013467;28;20613;-79
2023/06/01 03:48:52;;;;;;;4.40;2.47;;;16.20;98.80;;;;;;5013104;28;20704;-77
2023/06/01 03:51:18;;;;;;;5.67;2.50;;;16.20;98.90;;;;;;4981281;28;20192;-79
2023/06/01 03:53:44;;;;;;;3.97;2.50;;;16.20;99.10;;;;;;4979101;28;20300;-79
2023/06/01 03:56:10;;;;;;;7.07;2.77;;;16.20;99.40;;;;;;4979229;28;20214;-79
2023/06/01 03:58:39;;;;;;;6.28;3.10;;;16.20;99.70;;;;;;4978819;28;20769;-79
2023/06/01 04:01:05;;;;;;;4.50;2.60;;;16.10;99.90;;;;;;4978472;28;20217;-79
2023/06/01 04:03:32;;;;;;;4.38;3.08;;;16.10;99.90;;;;;;4979311;28;20218;-78
2023/06/01 04:05:59;;;;;;;7.32;3.83;;;16.10;99.90;;;;;;4995034;28;20177;-79
2023/06/01 04:08:29;;;;;;;8.00;4.03;;;16.10;99.90;;;;;;4995563;28;20598;-78
2023/06/01 04:10:54;;;;;;;4.47;3.45;;;16.10;99.90;;;;;;4978382;28;20705;-78
2023/06/01 04:13:21;;;;;;;4.43;3.42;;;16.10;99.90;;;;;;4994658;28;20214;-78
2023/06/01 04:15:47;;;;;;;7.33;4.27;;;16.10;99.90;;;;;;4995188;28;20609;-78
2023/06/01 04:18:17;;;;;;;7.35;3.58;;;16.10;99.90;;;;;;4978720;28;20185;-78
2023/06/01 04:21:03;;;;;;;7.07;4.40;;;16.10;99.90;;;;;;4978961;28;20186;-79
2023/06/01 04:23:30;;;;;;;8.57;4.83;;;16.20;99.90;;;;;;4994433;28;20649;-79
2023/06/01 04:25:59;;;;;;;7.17;3.60;;;16.30;99.90;;;;;;4979844;28;20565;-78
2023/06/01 04:28:26;;;;;;;5.00;3.27;;;16.50;99.90;;;;;;4987888;28;20700;-78
2023/06/01 04:30:52;;;;;;;6.37;3.37;;;16.80;99.90;;;;;;4991363;28;20578;-78
2023/06/01 04:33:18;;;;;;;8.13;4.00;;;17.10;99.90;;;;;;4991243;28;20717;-78
2023/06/01 04:35:44;;;;;;;4.97;3.77;;;17.40;99.90;;;;;;4995081;28;20577;-78
2023/06/01 04:38:12;;;;;;;5.53;3.70;;;17.60;99.90;;;;;;5027173;28;21160;-78
2023/06/01 04:40:37;;;;;;;7.37;4.30;;;17.70;99.90;;;;;;5012099;28;20608;-78
2023/06/01 04:43:04;;;;;;;7.67;5.13;;;17.70;99.90;;;;;;5010185;28;20214;-78
2023/06/01 04:45:30;;;;;;;8.80;5.73;;;17.70;99.90;;;;;;5026957;28;20585;-79
2023/06/01 04:47:59;;;;;;;5.80;5.20;;;17.80;99.90;;;;;;5027409;28;20596;-79
2023/06/01 04:50:51;;;;;;;5.67;4.60;;;17.90;99.90;;;;;;4992578;28;20210;-81
2023/06/01 04:53:17;;;;;;;11.50;4.60;;;18.10;99.90;;;;;;4993416;28;20679;-79
2023/06/01 04:55:44;;;;;;;5.63;5.03;;;18.20;99.90;;;;;;4994254;28;20178;-79
2023/06/01 04:58:10;;;;;;;7.50;5.33;;;18.40;99.90;;;;;;4995348;28;20189;-78
2023/06/01 05:00:35;;;;;;;7.20;5.20;;;18.60;99.90;;;;;;4978230;28;20569;-80
2023/06/01 05:03:02;;;;;;;7.40;5.13;;;18.70;99.90;;;;;;4995487;28;20698;-78
2023/06/01 05:05:28;;;;;;;9.67;6.30;;;19.00;99.90;;;;;;4978507;28;20635;-80
2023/06/01 05:07:54;;;;;;;6.70;5.03;;;19.20;99.90;;;;;;4993984;28;20923;-79
2023/06/01 05:10:21;;;;;;;8.87;6.53;;;19.40;99.90;;;;;;4993951;28;20597;-80
2023/06/01 05:12:48;;;;;;;8.83;6.13;;;19.60;99.90;;;;;;4993410;28;20609;-80
2023/06/01 05:15:16;;;;;;;9.83;7.40;;;19.90;99.90;;;;;;4978292;28;21149;-80
2023/06/01 05:17:42;;;;;;;7.37;5.70;;;20.00;99.90;;;;;;4993846;28;20589;-80
2023/06/01 05:20:12;;;;;;;8.53;6.07;;;20.00;99.90;;;;;;4977276;28;20586;-80
2023/06/01 05:22:39;;;;;;;7.07;5.70;;;20.00;99.90;;;;;;5026615;28;20637;-80
2023/06/01 05:25:05;;;;;;;10.17;7.60;;;19.90;99.90;;;;;;4993677;28;20592;-80
2023/06/01 05:27:31;;;;;;;9.30;6.70;;;19.90;99.90;;;;;;4993928;28;20178;-80
2023/06/01 05:29:58;;;;;;;12.20;9.27;;;19.90;99.90;;;;;;4993609;28;20589;-79
2023/06/01 05:32:23;;;;;;;12.93;7.83;;;19.90;99.90;;;;;;4993882;28;20593;-81
2023/06/01 05:34:50;;;;;;;13.13;9.60;;;19.80;99.90;;;;;;4993536;28;20182;-81
2023/06/01 05:37:16;;;;;;;15.90;10.20;;;19.70;99.90;;;;;;4977938;28;20585;-80
2023/06/01 05:39:42;;;;;;;13.77;9.33;;;19.60;99.90;;;;;;4979225;28;20597;-77
2023/06/01 05:42:08;;;;;;;13.40;11.73;;;19.50;99.90;;;;;;4993949;28;20680;-74
2023/06/01 05:44:37;;;;;;;16.67;12.53;;;19.40;99.90;;;;;;4977428;28;20648;-76
2023/06/01 05:47:03;;;;;;;13.43;11.03;;;19.40;99.90;;;;;;4976952;28;20570;-76
2023/06/01 05:49:31;;;;;;;12.67;10.70;;;19.70;99.90;;;;;;4993680;28;20185;-76
2023/06/01 05:51:58;;;;;;;13.77;10.63;;;20.20;99.90;;;;;;5010312;28;20672;-76
2023/06/01 05:54:25;;;;;;;11.77;10.33;;;20.80;99.90;;;;;;4977460;28;20648;-77
2023/06/01 05:56:51;;;;;;;14.40;11.03;;;21.50;99.90;;;;;;4992901;28;20605;-77
2023/06/01 05:59:16;;;;;;;14.93;10.77;;;22.40;99.90;;;;;;5022677;28;20580;-77
2023/06/01 06:01:44;;;;;;;14.80;11.33;;;23.30;99.90;;;;;;4993059;28;20197;-77
2023/06/01 06:04:10;;;;;;;12.80;10.00;;;24.00;99.90;;;;;;4993454;28;20648;-77
2023/06/01 06:06:36;;;;;;;14.17;10.70;;;24.80;99.90;;;;;;5011109;28;20656;-76
2023/06/01 06:09:04;;;;;;;13.40;9.63;;;25.60;99.40;;;;;;4993061;28;21144;-76
2023/06/01 06:11:30;;;;;;;17.70;10.30;;;26.30;98.20;;;;;;4976508;28;20597;-77
2023/06/01 06:13:56;;;;;;;11.60;9.50;;;27.00;96.80;;;;;;5010275;28;20609;-77
2023/06/01 06:16:21;;;;;;;13.30;9.10;;;27.50;95.80;;;;;;4978521;28;20597;-77
2023/06/01 06:18:47;;;;;;;13.17;10.40;;;28.10;93.70;;;;;;5010979;28;20170;-77
2023/06/01 06:21:13;;;;;;;11.83;10.73;;;28.50;92.60;;;;;;4992728;28;20732;-77
2023/06/01 06:23:39;;;;;;;11.10;9.53;;;28.80;91.00;;;;;;5012391;28;20210;-77
2023/06/01 06:26:06;;;;;;;14.47;10.20;;;29.10;90.60;;;;;;4997204;28;20178;-78
2023/06/01 06:28:32;;;;;;;12.93;11.20;;;29.40;88.20;;;;;;5014620;28;20623;-76
2023/06/01 06:30:58;;;;;;;10.10;9.10;;;29.60;86.20;;;;;;4981187;28;20609;-76
2023/06/01 06:33:24;;;;;;;11.70;10.50;;;29.90;85.60;;;;;;4997290;28;20538;-77
2023/06/01 06:35:49;;;;;;;11.30;10.00;;;30.30;83.10;;;;;;5014228;28;20577;-76
2023/06/01 06:38:16;;;;;;;10.50;9.50;;;30.60;80.50;;;;;;4997305;28;20179;-76
2023/06/01 06:40:42;;;;;;;12.27;11.03;;;30.80;77.80;;;;;;5014011;28;20557;-76
2023/06/01 06:43:08;;;;;;;11.33;9.20;;;31.00;75.30;;;;;;4996706;28;20690;-77
2023/06/01 06:45:34;;;;;;;9.67;8.60;;;31.20;74.10;;;;;;4996989;28;20573;-76
2023/06/01 06:48:00;;;;;;;10.30;9.30;;;31.40;71.90;;;;;;4989274;28;20612;-77
2023/06/01 06:50:27;;;;;;;9.33;8.40;;;31.60;69.70;;;;;;4977358;28;20229;-77
2023/06/01 06:52:53;;;;;;;10.10;9.10;;;31.60;68.00;;;;;;4996683;28;20603;-77
2023/06/01 06:55:19;;;;;;;10.70;9.60;;;31.40;67.10;;;;;;4980916;28;20627;-76
2023/06/01 06:57:44;;;;;;;10.27;8.50;;;31.50;65.10;;;;;;4996245;28;20178;-77
2023/06/01 07:00:14;;;;;;;11.90;9.50;;;31.20;63.40;;;;;;4992696;28;20586;-77
2023/06/01 07:02:44;;;;;;;9.17;8.27;;;31.00;62.30;;;;;;5008827;28;20297;-77
2023/06/01 07:05:10;;;;;;;10.13;7.97;;;30.90;62.10;;;;;;5009850;28;20578;-77
2023/06/01 07:07:37;;;;;;;11.30;9.60;;;31.00;63.00;;;;;;5000022;28;20578;-77
2023/06/01 07:10:04;;;;;;;10.60;8.40;;;30.90;61.00;;;;;;4979579;28;20747;-77
2023/06/01 07:12:30;;;;;;;10.27;9.27;;;30.70;60.60;;;;;;4996322;28;20577;-77
2023/06/01 07:14:55;;;;;;;9.33;8.03;;;30.60;60.00;;;;;;5013442;28;20576;-78
2023/06/01 07:17:21;;;;;;;8.50;7.40;;;30.30;59.70;;;;;;5013536;28;20190;-77
2023/06/01 07:19:47;;;;;;;11.20;9.27;;;29.90;59.10;;;;;;5013120;28;20260;-79
2023/06/01 07:22:13;;;;;;;11.00;9.80;;;29.40;58.60;;;;;;5012497;28;20186;-78
2023/06/01 07:24:39;;;;;;;9.30;8.40;;;29.30;59.30;;;;;;5013182;28;21096;-78
2023/06/01 07:27:05;;;;;;;10.67;9.60;;;29.40;59.80;;;;;;5013849;28;20577;-79
2023/06/01 07:29:32;;;;;;;9.67;8.70;;;29.60;60.90;;;;;;4980464;28;20233;-78
2023/06/01 07:31:57;;;;;;;9.73;8.83;;;29.90;61.00;;;;;;5016089;28;20643;-79
2023/06/01 07:34:24;;;;;;;10.10;9.10;;;30.20;60.90;;;;;;5012962;28;20621;-80
2023/06/01 07:36:50;;;;;;;10.87;9.87;;;30.40;60.10;;;;;;4994903;28;20170;-79
2023/06/01 07:39:16;;;;;;;9.93;8.93;;;30.50;58.70;;;;;;4996810;28;21163;-79
2023/06/01 07:41:44;;;;;;;10.77;9.60;;;30.50;58.40;;;;;;4995155;28;20992;-80
2023/06/01 07:44:10;;;;;;;10.07;8.27;;;30.40;57.70;;;;;;5012826;28;20751;-78
2023/06/01 07:46:36;;;;;;;11.10;8.50;;;30.30;57.40;;;;;;5028436;28;21056;-79
2023/06/01 07:49:03;;;;;;;9.07;7.93;;;30.30;56.80;;;;;;4995664;28;20714;-79
2023/06/01 07:51:29;;;;;;;11.57;10.07;;;30.30;57.00;;;;;;4995449;28;20178;-79
2023/06/01 07:53:57;;;;;;;9.17;8.23;;;30.30;56.90;;;;;;4996621;28;20700;-78
2023/06/01 07:56:26;;;;;;;8.37;7.60;;;30.40;57.40;;;;;;5013448;28;20977;-79
2023/06/01 07:58:53;;;;;;;10.57;8.73;;;30.60;57.00;;;;;;4979002;28;20582;-78
2023/06/01 08:01:19;;;;;;;10.83;8.83;;;30.70;56.70;;;;;;4995293;28;20584;-79
2023/06/01 08:03:45;;;;;;;9.40;8.47;;;31.00;56.80;;;;;;5012269;28;20974;-78
2023/06/01 08:06:11;;;;;;;8.57;7.87;;;31.30;57.00;;;;;;4996293;28;20185;-78
2023/06/01 08:08:37;;;;;;;9.93;8.90;;;31.60;56.40;;;;;;4999066;28;21187;-79
2023/06/01 08:11:03;;;;;;;9.13;8.33;;;31.90;55.30;;;;;;4994994;28;20593;-78
2023/06/01 08:13:28;;;;;;;9.73;8.83;;;32.10;55.00;;;;;;5012478;28;20637;-79
2023/06/01 08:15:54;;;;;;;8.00;6.97;;;32.40;54.50;;;;;;5012480;28;20202;-79
2023/06/01 08:18:21;;;;;;;9.80;7.73;;;32.60;54.60;;;;;;4995319;28;20555;-79
2023/06/01 08:20:48;;;;;;;9.33;8.53;;;32.80;53.70;;;;;;4994535;28;20188;-79
2023/06/01 08:23:16;;;;;;;7.97;7.20;;;33.00;53.60;;;;;;4995087;28;21269;-80
2023/06/01 08:25:44;;;;;;;10.50;9.50;;;33.20;53.00;;;;;;5012347;28;20675;-80
2023/06/01 08:28:10;;;;;;;15.10;9.10;;;33.40;52.10;;;;;;5012683;28;20988;-80
2023/06/01 08:30:36;;;;;;;9.37;8.47;;;33.50;51.70;;;;;;4994899;28;20578;-79
2023/06/01 08:33:02;;;;;;;9.47;8.47;;;33.60;51.20;;;;;;5012083;28;20193;-79
2023/06/01 08:35:30;;;;;;;12.00;9.10;;;33.70;50.80;;;;;;5012564;28;20171;-80
2023/06/01 08:37:56;;;;;;;9.20;8.30;;;33.80;50.60;;;;;;5012428;28;20685;-79
2023/06/01 08:40:21;;;;;;;10.83;8.63;;;33.80;50.30;;;;;;5012706;28;20601;-78
2023/06/01 08:43:17;;;;;;;9.17;8.27;;;34.00;49.90;;;;;;4996079;28;20281;-79
2023/06/01 08:45:43;;;;;;;8.57;7.77;;;34.20;49.40;;;;;;4980297;28;20536;-79
2023/06/01 08:48:15;;;;;;;9.40;8.57;;;34.50;49.50;;;;;;4995302;28;20586;-79
2023/06/01 08:50:42;;;;;;;8.93;8.07;;;34.70;48.80;;;;;;4994624;28;20631;-80
2023/06/01 08:53:08;;;;;;;11.23;10.13;;;35.00;48.70;;;;;;5011919;28;20615;-81
2023/06/01 08:55:34;;;;;;;9.80;8.90;;;35.00;47.10;;;;;;5012356;28;20615;-79
2023/06/01 08:58:00;;;;;;;11.57;10.40;;;35.00;47.00;;;;;;5012266;28;20589;-80
2023/06/01 09:00:27;;;;;;;9.33;8.40;;;35.10;46.50;;;;;;4993831;28;20244;-79
2023/06/01 09:02:53;;;;;;;12.27;10.20;;;35.10;46.00;;;;;;4994184;28;20663;-80
2023/06/01 09:05:19;;;;;;;9.57;8.77;;;35.10;45.10;;;;;;5011669;28;20572;-80
2023/06/01 09:07:46;;;;;;;9.73;8.73;;;35.10;45.40;;;;;;4994129;28;20764;-80
2023/06/01 09:10:12;;;;;;;10.63;9.70;;;35.20;45.40;;;;;;5009971;28;20664;-80
2023/06/01 09:12:40;;;;;;;10.10;9.10;;;35.30;44.40;;;;;;4994085;28;20656;-79
2023/06/01 09:15:09;;;;;;;10.47;9.57;;;35.30;44.10;;;;;;4977686;28;20174;-80
2023/06/01 09:17:35;;;;;;;8.80;7.90;;;35.30;43.60;;;;;;4974993;28;20627;-81
2023/06/01 09:20:01;;;;;;;7.10;6.37;;;35.30;43.80;;;;;;4993979;28;20597;-80
2023/06/01 09:22:45;;;;;;;7.80;7.10;;;35.50;44.20;;;;;;4975786;28;20644;-80
2023/06/01 09:25:15;;;;;;;9.07;8.10;;;35.80;44.00;;;;;;4974665;28;20577;-80
2023/06/01 09:27:49;;;;;;;8.77;7.80;;;35.90;43.20;;;;;;4991503;28;20608;-80
2023/06/01 09:30:16;;;;;;;9.23;8.33;;;36.00;42.30;;;;;;4990676;28;20634;-78
2023/06/01 09:32:44;;;;;;;9.93;9.03;;;36.10;42.20;;;;;;4973815;28;20609;-79
2023/06/01 09:35:10;;;;;;;7.97;7.07;;;36.20;41.80;;;;;;5001185;28;20593;-79
2023/06/01 09:37:38;;;;;;;7.43;6.83;;;36.20;41.50;;;;;;5011178;28;20615;-80
2023/06/01 09:40:20;;;;;;;6.73;5.93;;;36.30;40.80;;;;;;4993794;28;20581;-80
2023/06/01 09:42:49;;;;;;;6.63;6.03;;;36.30;40.90;;;;;;4976170;28;20718;-79
2023/06/01 09:45:23;;;;;;;6.90;5.60;;;36.20;41.00;;;;;;5011447;28;20910;-80
2023/06/01 09:47:50;;;;;;;7.27;6.67;;;36.30;40.80;;;;;;5011598;28;20574;-80
2023/06/01 09:50:38;;;;;;;9.33;6.40;;;36.40;40.00;;;;;;5010732;28;20612;-79
2023/06/01 09:53:06;;;;;;;6.40;5.80;;;36.40;40.40;;;;;;4977521;28;20609;-80
2023/06/01 09:55:32;;;;;;;7.17;6.00;;;36.60;40.50;;;;;;5010754;28;20589;-81
2023/06/01 09:58:21;;;;;;;6.57;5.20;;;36.60;39.60;;;;;;5001193;28;20654;-80
2023/06/01 10:00:50;;;;;;;5.40;4.90;;;36.80;40.10;;;;;;4993730;28;20304;-79
2023/06/01 10:03:18;;;;;;;6.13;5.63;;;36.80;39.10;;;;;;4987988;28;20677;-79
2023/06/01 10:05:45;;;;;;;6.60;5.30;;;36.80;38.70;;;;;;5003189;28;20613;-79
2023/06/01 10:08:12;;;;;;;5.93;5.33;;;36.80;38.00;;;;;;4987418;28;20588;-79
2023/06/01 10:10:39;;;;;;;7.00;6.30;;;36.80;38.10;;;;;;4984533;28;20597;-80
2023/06/01 10:13:06;;;;;;;6.67;5.63;;;36.80;37.40;;;;;;5012870;28;20633;-79
2023/06/01 10:15:33;;;;;;;6.60;5.90;;;36.50;36.70;;;;;;5013328;28;20620;-79
2023/06/01 10:18:00;;;;;;;7.60;6.00;;;36.30;36.60;;;;;;4988744;28;20617;-79
2023/06/01 10:20:26;;;;;;;7.40;6.80;;;36.20;36.60;;;;;;5011243;28;20577;-78
2023/06/01 10:22:52;;;;;;;6.60;6.00;;;36.10;36.50;;;;;;5011863;28;21015;-79
2023/06/01 10:25:21;;;;;;;9.30;5.73;;;36.00;36.70;;;;;;4988196;28;20178;-78
2023/06/01 10:28:02;;;;;;;6.10;5.53;;;35.90;36.70;;;;;;5011478;28;20585;-78
2023/06/01 10:30:27;;;;;;;6.47;5.87;;;35.90;37.10;;;;;;5011290;28;20604;-79
2023/06/01 10:32:54;;;;;;;6.60;6.10;;;35.90;37.30;;;;;;4993644;28;21215;-78
2023/06/01 10:35:26;;;;;;;6.73;5.70;;;35.90;37.10;;;;;;5015201;28;20186;-79
2023/06/01 10:38:07;;;;;;;8.80;6.93;;;36.00;37.20;;;;;;5012105;28;20601;-81
2023/06/01 10:40:36;;;;;;;6.50;5.83;;;36.10;37.20;;;;;;5009880;28;20635;-80
2023/06/01 10:43:02;;;;;;;8.37;7.00;;;36.10;37.10;;;;;;5009323;28;20742;-78
2023/06/01 10:45:39;;;;;;;6.90;6.20;;;36.00;36.70;;;;;;4993875;28;20680;-78
2023/06/01 10:48:07;;;;;;;8.60;7.77;;;36.00;37.20;;;;;;5012581;28;20683;-76
2023/06/01 10:50:35;;;;;;;7.10;6.47;;;35.80;36.50;;;;;;4985641;28;21175;-76
2023/06/01 10:53:30;;;;;;;10.30;7.37;;;35.50;36.40;;;;;;4985424;28;20624;-77
2023/06/01 10:56:20;;;;;;;8.03;6.93;;;35.30;36.70;;;;;;4970288;28;20696;-76
2023/06/01 10:58:47;;;;;;;7.40;6.40;;;35.00;37.00;;;;;;5010153;28;20955;-76
2023/06/01 11:01:20;;;;;;;8.10;7.30;;;34.80;37.10;;;;;;4986623;28;21376;-76
2023/06/01 11:03:49;;;;;;;8.53;7.80;;;34.60;37.20;;;;;;4993411;28;20749;-76
2023/06/01 11:06:45;;;;;;;9.00;8.13;;;34.40;37.30;;;;;;5010307;28;20586;-77
2023/06/01 11:09:12;;;;;;;9.13;8.23;;;34.20;37.40;;;;;;4983676;28;21149;-76
2023/06/01 11:11:52;;;;;;;8.90;8.17;;;34.10;37.50;;;;;;5013985;28;20755;-76
2023/06/01 11:14:23;;;;;;;9.60;8.70;;;34.00;37.60;;;;;;5008401;28;20615;-76
2023/06/01 11:16:54;;;;;;;13.33;12.03;;;33.90;37.80;;;;;;4966643;28;20619;-76
2023/06/01 11:19:27;;;;;;;13.77;12.47;;;33.80;37.70;;;;;;4949423;28;20635;-76
2023/06/01 11:22:01;;;;;;;15.00;13.60;;;33.70;37.80;;;;;;4991929;28;20671;-77
2023/06/01 11:24:43;;;;;;;13.33;12.03;;;33.50;37.50;;;;;;5008409;28;20653;-76
2023/06/01 11:27:10;;;;;;;11.07;10.07;;;33.40;37.70;;;;;;5010222;28;20580;-76
2023/06/01 11:29:37;;;;;;;13.97;12.47;;;33.30;37.80;;;;;;5010133;28;20734;-76
2023/06/01 11:32:07;;;;;;;16.43;14.93;;;33.20;37.70;;;;;;5009946;28;20588;-76
2023/06/01 11:34:37;;;;;;;18.97;17.30;;;33.10;37.70;;;;;;4992387;28;20624;-77
2023/06/01 11:37:03;;;;;;;17.73;15.90;;;32.90;37.60;;;;;;4985642;28;21162;-77
2023/06/01 11:39:29;;;;;;;14.30;12.90;;;32.60;37.60;;;;;;4993374;28;20726;-76
2023/06/01 11:42:05;;;;;;;13.67;12.47;;;32.40;38.00;;;;;;4985601;28;20596;-76
2023/06/01 11:44:34;;;;;;;12.93;11.63;;;32.20;38.20;;;;;;5013472;28;20634;-76
2023/06/01 11:47:00;;;;;;;14.50;11.50;;;32.10;38.40;;;;;;5005681;28;20676;-76
2023/06/01 11:49:27;;;;;;;14.57;13.17;;;32.00;38.40;;;;;;5016376;28;20581;-77
2023/06/01 11:51:55;;;;;;;15.40;13.67;;;32.00;38.30;;;;;;5012433;28;20571;-76
2023/06/01 11:54:23;;;;;;;15.17;13.67;;;31.90;38.30;;;;;;4995439;28;21015;-76
2023/06/01 11:56:49;;;;;;;15.27;13.60;;;31.70;38.30;;;;;;5012723;28;20616;-76
2023/06/01 11:59:14;;;;;;;15.23;13.80;;;31.60;38.00;;;;;;4986387;28;20619;-76
2023/06/01 12:01:45;;;;;;;15.40;13.90;;;31.50;38.10;;;;;;5012356;28;20175;-76
2023/06/01 12:04:21;;;;;;;13.37;12.17;;;31.30;38.00;;;;;;5012379;28;20237;-76
2023/06/01 12:06:47;;;;;;;14.67;12.87;;;31.10;38.00;;;;;;4995409;28;20619;-76
2023/06/01 12:09:15;;;;;;;14.00;11.83;;;30.90;38.00;;;;;;5012724;28;20614;-76
2023/06/01 12:11:42;;;;;;;13.10;11.13;;;30.80;38.90;;;;;;4994840;28;20265;-76
2023/06/01 12:14:10;;;;;;;12.37;10.43;;;30.60;39.20;;;;;;4994887;28;20623;-76
2023/06/01 12:16:56;;;;;;;16.60;10.10;;;30.60;38.80;;;;;;5012595;28;21007;-76
2023/06/01 12:19:22;;;;;;;12.03;10.93;;;30.40;38.40;;;;;;4994942;28;20681;-76
2023/06/01 12:21:54;;;;;;;11.03;9.90;;;30.40;38.60;;;;;;4991258;28;21181;-76
2023/06/01 12:24:32;;;;;;;15.80;11.93;;;30.30;38.60;;;;;;5011457;28;20795;-76
2023/06/01 12:27:02;;;;;;;14.07;12.47;;;30.20;38.60;;;;;;4993679;28;20941;-76
2023/06/01 12:29:41;;;;;;;11.90;10.70;;;30.00;38.40;;;;;;5012511;28;20669;-76
2023/06/01 12:32:08;;;;;;;12.00;10.83;;;29.90;38.40;;;;;;4994077;28;21540;-76
2023/06/01 12:34:37;;;;;;;12.57;11.40;;;29.70;38.50;;;;;;4991204;28;21195;-76
2023/06/01 12:37:17;;;;;;;12.33;11.13;;;29.50;38.80;;;;;;5005739;28;21149;-77
2023/06/01 12:39:50;;;;;;;14.13;11.60;;;29.30;39.00;;;;;;5027014;28;20605;-77
2023/06/01 12:42:17;;;;;;;14.83;9.93;;;29.20;38.80;;;;;;4993751;28;20605;-76
2023/06/01 12:44:42;;;;;;;51.40;16.50;;;29.00;38.70;;;;;;4994348;28;20656;-76
2023/06/01 12:47:08;;;;;;;17.47;9.73;;;28.70;38.70;;;;;;4994480;28;20585;-76
2023/06/01 12:49:34;;;;;;;27.87;9.57;;;28.50;38.70;;;;;;4994382;28;20184;-76